East Milton, Massachusetts
Current Conditions -  °F | °C
As of 11:53 AM on Thursday 23 Oct 2014 (Local Time) from KOWD Reporting Station
Light Rain Light Rain  
Wind Chill: 54°   Ceiling: 700
Heat Index: 54°   Visibility: 4mi
Dew Point: 52°   Wind: 9mph
Humidity: 93%   Direction: 360°N
Pressure: 29.61"   Gusts: 22mph
Location:  42.2°N, 71.11°W
Report Text: KOWD 231553Z 36008G19KT 4SM -RA BR OVC007 12/11 A2961 RMK AO2 RAB05 SLP026 P0000 T01220111
Loading
Personal Weather Stations






























Interactive Weather Map
Tropical Storm Tracking
New forecast layout! Learn more

10-Day Weather Forecast

Advertisements
Track Severe Weather on mobile